createdAt,value
2022-09-20T00:01:23.255Z,3.33
2022-09-20T00:03:52.724Z,2.88
2022-09-20T00:06:28.428Z,2.67
2022-09-20T00:08:56.637Z,4.35
2022-09-20T00:11:29.089Z,2.70
2022-09-20T00:13:57.153Z,3.70
2022-09-20T00:16:26.760Z,2.70
2022-09-20T00:18:55.590Z,2.67
2022-09-20T00:21:24.845Z,2.30
2022-09-20T00:23:52.653Z,2.55
2022-09-20T00:26:19.676Z,3.00
2022-09-20T00:28:47.193Z,2.63
2022-09-20T00:31:15.090Z,3.80
2022-09-20T00:34:00.207Z,3.10
2022-09-20T00:36:29.657Z,2.50
2022-09-20T00:39:01.187Z,3.70
2022-09-20T00:41:30.572Z,2.63
2022-09-20T00:43:57.739Z,2.90
2022-09-20T00:46:39.895Z,3.00
2022-09-20T00:49:14.853Z,2.92
2022-09-20T00:51:45.630Z,2.25
2022-09-20T00:54:19.419Z,2.47
2022-09-20T00:56:46.929Z,2.50
2022-09-20T01:02:00.973Z,2.30
2022-09-20T01:04:28.934Z,2.17
2022-09-20T01:07:05.933Z,2.40
2022-09-20T01:09:32.430Z,3.05
2022-09-20T01:12:03.966Z,2.30
2022-09-20T01:14:30.889Z,2.28
2022-09-20T01:17:02.626Z,2.40
2022-09-20T01:19:47.760Z,2.47
2022-09-20T01:22:46.574Z,2.08
2022-09-20T01:25:44.039Z,2.00
2022-09-20T01:28:10.571Z,2.50
2022-09-20T01:30:43.867Z,2.58
2022-09-20T01:33:21.819Z,2.65
2022-09-20T01:35:51.389Z,2.53
2022-09-20T01:38:35.174Z,2.80
2022-09-20T01:41:12.514Z,2.78
2022-09-20T01:44:06.967Z,4.07
2022-09-20T01:46:35.894Z,3.67
2022-09-20T01:49:25.790Z,2.47
2022-09-20T01:52:29.995Z,2.88
2022-09-20T01:55:27.243Z,3.08
2022-09-20T01:58:21.638Z,2.92
2022-09-20T02:01:24.301Z,2.95
2022-09-20T02:04:02.723Z,2.80
2022-09-20T02:06:50.675Z,3.42
2022-09-20T02:09:26.026Z,2.83
2022-09-20T02:12:14.447Z,3.20
2022-09-20T02:15:05.562Z,3.10
2022-09-20T02:17:32.119Z,2.97
2022-09-20T02:19:58.505Z,2.72
2022-09-20T02:22:36.782Z,2.60
2022-09-20T02:25:21.685Z,2.58
2022-09-20T02:28:03.327Z,3.08
2022-09-20T02:30:44.756Z,2.40
2022-09-20T02:33:18.192Z,2.58
2022-09-20T02:36:10.526Z,2.33
2022-09-20T02:38:37.678Z,2.33
2022-09-20T02:41:51.199Z,2.70
2022-09-20T02:44:33.753Z,2.50
2022-09-20T02:47:10.073Z,2.90
2022-09-20T02:49:43.148Z,3.33
2022-09-20T02:52:36.583Z,3.15
2022-09-20T02:55:35.797Z,2.70
2022-09-20T02:58:13.952Z,2.60
2022-09-20T03:00:53.703Z,2.88
2022-09-20T03:03:36.505Z,3.80
2022-09-20T03:06:23.021Z,3.60
2022-09-20T03:09:01.132Z,2.90
2022-09-20T03:11:47.317Z,2.70
2022-09-20T03:14:31.053Z,2.80
2022-09-20T03:17:12.589Z,3.00
2022-09-20T03:20:06.329Z,2.83
2022-09-20T03:22:47.757Z,2.50
2022-09-20T03:25:39.147Z,2.50
2022-09-20T03:28:33.260Z,2.65
2022-09-20T03:31:05.681Z,3.00
2022-09-20T03:33:41.149Z,3.20
2022-09-20T03:36:34.706Z,3.00
2022-09-20T03:39:07.169Z,2.63
2022-09-20T03:41:52.338Z,2.85
2022-09-20T03:44:36.737Z,3.05
2022-09-20T03:47:22.374Z,2.90
2022-09-20T03:50:19.229Z,3.00
2022-09-20T03:52:54.458Z,3.20
2022-09-20T03:55:42.418Z,2.88
2022-09-20T03:58:40.478Z,3.13
2022-09-20T04:01:16.405Z,2.78
2022-09-20T04:03:56.176Z,2.60
2022-09-20T04:06:41.770Z,2.80
2022-09-20T04:09:47.524Z,3.10
2022-09-20T04:12:30.837Z,3.10
2022-09-20T04:15:03.641Z,2.35
2022-09-20T04:17:45.441Z,2.78
2022-09-20T04:20:21.900Z,2.92
2022-09-20T04:22:53.458Z,2.50
2022-09-20T04:25:44.266Z,3.50
2022-09-20T04:28:35.811Z,2.25
2022-09-20T04:31:14.727Z,3.40
2022-09-20T04:33:45.273Z,3.25
2022-09-20T04:36:31.852Z,3.00
2022-09-20T04:39:19.302Z,4.72
2022-09-20T04:42:15.475Z,2.80
2022-09-20T04:45:09.069Z,2.80
2022-09-20T04:48:13.374Z,3.00
2022-09-20T04:51:10.929Z,2.55
2022-09-20T04:54:15.049Z,3.20
2022-09-20T04:57:20.582Z,2.95
2022-09-20T05:00:12.875Z,3.20
2022-09-20T05:03:04.135Z,2.90
2022-09-20T05:05:35.854Z,2.80
2022-09-20T05:08:24.547Z,3.03
2022-09-20T05:11:06.832Z,3.42
2022-09-20T05:14:19.550Z,4.57
2022-09-20T05:17:14.860Z,5.38
2022-09-20T05:20:10.626Z,4.03
2022-09-20T05:23:15.375Z,4.32
2022-09-20T05:26:03.440Z,4.28
2022-09-20T05:28:45.328Z,4.57
2022-09-20T05:31:30.987Z,4.55
2022-09-20T05:34:32.305Z,4.47
2022-09-20T05:37:14.413Z,4.78
2022-09-20T05:39:52.388Z,4.03
2022-09-20T05:42:27.637Z,4.15
2022-09-20T05:45:15.759Z,4.20
2022-09-20T05:48:20.734Z,4.40
2022-09-20T05:51:01.886Z,3.90
2022-09-20T05:53:56.507Z,4.45
2022-09-20T05:57:00.671Z,5.50
2022-09-20T05:59:47.724Z,3.95
2022-09-20T06:02:34.960Z,4.07
2022-09-20T06:05:10.745Z,4.70
2022-09-20T06:07:52.563Z,4.32
2022-09-20T06:10:41.737Z,5.03
2022-09-20T06:13:20.742Z,5.35
2022-09-20T06:15:58.137Z,4.70
2022-09-20T06:18:32.261Z,4.90
2022-09-20T06:21:25.522Z,5.70
2022-09-20T06:23:58.481Z,4.47
2022-09-20T06:26:29.394Z,5.32
2022-09-20T06:29:03.459Z,4.20
2022-09-20T06:31:29.966Z,4.43
2022-09-20T06:34:05.579Z,4.32
2022-09-20T06:36:56.408Z,4.63
2022-09-20T06:39:56.749Z,4.30
2022-09-20T06:42:27.053Z,3.83
2022-09-20T06:44:54.135Z,5.03
2022-09-20T06:47:21.803Z,4.93
2022-09-20T06:49:49.982Z,3.80
2022-09-20T06:52:21.988Z,3.78
2022-09-20T06:54:51.862Z,3.78
2022-09-20T06:57:23.493Z,3.80
2022-09-20T06:59:49.987Z,4.25
2022-09-20T07:02:16.570Z,4.00
2022-09-20T07:07:16.596Z,3.83
2022-09-20T07:09:43.037Z,2.72
2022-09-20T07:12:12.437Z,3.10
2022-09-20T07:14:39.369Z,3.08
2022-09-20T07:17:06.596Z,3.30
2022-09-20T07:19:33.918Z,3.00
2022-09-20T07:22:00.376Z,2.70
2022-09-20T07:24:26.782Z,3.80
2022-09-20T07:26:58.607Z,3.90
2022-09-20T07:29:25.757Z,3.15
2022-09-20T07:31:53.085Z,3.08
2022-09-20T07:34:20.345Z,2.95
2022-09-20T07:36:51.298Z,3.20
2022-09-20T07:39:18.547Z,2.90
2022-09-20T07:41:48.598Z,3.25
2022-09-20T07:44:22.172Z,3.30
2022-09-20T07:46:49.827Z,3.58
2022-09-20T07:49:16.470Z,4.10
2022-09-20T07:54:09.447Z,3.30
2022-09-20T07:56:36.234Z,3.25
2022-09-20T07:59:02.706Z,3.22
2022-09-20T08:01:29.522Z,3.28
2022-09-20T08:03:57.421Z,3.22
2022-09-20T08:06:24.134Z,3.53
2022-09-20T08:08:51.673Z,3.35
2022-09-20T08:11:21.748Z,3.53
2022-09-20T08:14:07.132Z,3.60
2022-09-20T08:16:39.780Z,3.03
2022-09-20T08:19:06.406Z,3.88
2022-09-20T08:24:01.017Z,3.10
2022-09-20T08:26:31.108Z,3.28
2022-09-20T08:28:59.280Z,3.38
2022-09-20T08:31:31.491Z,3.55
2022-09-20T08:33:59.066Z,3.60
2022-09-20T08:36:26.509Z,3.72
2022-09-20T08:41:51.329Z,3.83
2022-09-20T08:44:35.498Z,3.53
2022-09-20T08:47:16.038Z,4.22
2022-09-20T08:49:46.103Z,3.92
2022-09-20T08:52:19.347Z,4.05
2022-09-20T08:54:45.954Z,3.50
2022-09-20T08:59:44.629Z,3.05
2022-09-20T09:02:20.460Z,2.95
2022-09-20T09:04:48.775Z,3.08
2022-09-20T09:07:20.961Z,2.78
2022-09-20T09:09:50.032Z,2.42
2022-09-20T09:12:24.949Z,2.67
2022-09-20T09:14:57.296Z,2.70
2022-09-20T09:17:29.148Z,2.90
2022-09-20T09:20:07.204Z,2.85
2022-09-20T09:22:42.705Z,4.00
2022-09-20T09:25:14.885Z,2.90
2022-09-20T09:28:01.366Z,2.78
2022-09-20T09:30:36.229Z,2.47
2022-09-20T09:33:21.059Z,2.63
2022-09-20T09:35:55.676Z,3.30
2022-09-20T09:38:26.002Z,2.40
2022-09-20T09:41:05.278Z,2.20
2022-09-20T09:43:35.526Z,2.50
2022-09-20T09:46:24.152Z,3.10
2022-09-20T09:49:18.474Z,3.03
2022-09-20T09:52:06.456Z,2.90
2022-09-20T09:54:37.430Z,3.10
2022-09-20T09:57:20.657Z,2.72
2022-09-20T10:00:22.015Z,3.13
2022-09-20T10:03:13.036Z,2.95
2022-09-20T10:06:11.362Z,3.33
2022-09-20T10:08:59.529Z,3.72
2022-09-20T10:11:58.601Z,3.22
2022-09-20T10:14:38.379Z,3.63
2022-09-20T10:17:16.699Z,3.25
2022-09-20T10:20:01.952Z,3.83
2022-09-20T10:22:40.651Z,3.42
2022-09-20T10:25:19.896Z,3.60
2022-09-20T10:28:30.607Z,3.78
2022-09-20T10:31:28.866Z,3.60
2022-09-20T10:34:02.307Z,3.50
2022-09-20T10:36:58.057Z,3.78
2022-09-20T10:39:36.401Z,3.38
2022-09-20T10:42:27.575Z,2.72
2022-09-20T10:45:34.925Z,2.53
2022-09-20T10:48:13.144Z,2.88
2022-09-20T10:50:48.878Z,2.53
2022-09-20T10:53:49.183Z,2.70
2022-09-20T10:56:29.188Z,2.33
2022-09-20T10:59:23.324Z,2.10
2022-09-20T11:02:08.155Z,2.00
2022-09-20T11:04:45.960Z,2.15
2022-09-20T11:07:33.921Z,2.00
2022-09-20T11:10:31.175Z,2.20
2022-09-20T11:13:16.468Z,1.97
2022-09-20T11:16:26.289Z,1.63
2022-09-20T11:19:23.504Z,1.73
2022-09-20T11:22:17.367Z,2.20
2022-09-20T11:24:48.032Z,1.63
2022-09-20T11:27:20.821Z,1.67
2022-09-20T11:30:04.983Z,1.63
2022-09-20T11:32:42.405Z,1.90
2022-09-20T11:35:11.812Z,1.42
2022-09-20T11:37:45.437Z,1.60
2022-09-20T11:40:14.741Z,1.40
2022-09-20T11:42:42.160Z,1.40
2022-09-20T11:45:12.536Z,1.42
2022-09-20T11:47:55.374Z,1.50
2022-09-20T11:50:56.617Z,1.67
2022-09-20T11:53:52.917Z,1.20
2022-09-20T11:56:20.927Z,1.40
2022-09-20T11:58:49.981Z,1.30
2022-09-20T12:01:28.561Z,1.30
2022-09-20T12:04:28.279Z,1.30
2022-09-20T12:07:08.888Z,1.30
2022-09-20T12:09:40.389Z,1.48
2022-09-20T12:12:32.235Z,1.25
2022-09-20T12:15:02.198Z,1.98
2022-09-20T12:17:47.124Z,1.40
2022-09-20T16:31:42.292Z,1.30
2022-09-20T16:34:19.261Z,1.30
2022-09-20T16:36:47.276Z,1.58
2022-09-20T16:39:14.746Z,1.58
2022-09-20T16:41:41.859Z,1.30
2022-09-20T16:44:08.866Z,1.30
2022-09-20T16:46:38.694Z,1.60
2022-09-20T16:49:09.198Z,1.50
2022-09-20T16:51:37.667Z,1.70
2022-09-20T16:54:12.350Z,1.50
2022-09-20T16:56:41.402Z,1.63
2022-09-20T16:59:08.207Z,1.60
2022-09-20T17:01:36.966Z,1.50
2022-09-20T17:04:08.350Z,1.40
2022-09-20T17:06:37.116Z,1.52
2022-09-20T17:09:05.059Z,1.60
2022-09-20T17:11:37.245Z,1.35
2022-09-20T17:14:05.248Z,1.40
2022-09-20T17:16:37.086Z,1.50
2022-09-20T17:19:09.428Z,2.30
2022-09-20T17:21:38.369Z,1.77
2022-09-20T17:24:07.147Z,1.60
2022-09-20T17:26:40.297Z,1.50
2022-09-20T17:29:09.993Z,1.75
2022-09-20T17:31:39.661Z,2.17
2022-09-20T17:34:09.581Z,1.70
2022-09-20T17:36:44.427Z,1.80
2022-09-20T17:39:12.996Z,1.70
2022-09-20T17:41:41.256Z,2.25
2022-09-20T17:44:09.969Z,1.60
2022-09-20T17:46:38.528Z,2.60
2022-09-20T17:49:07.644Z,1.63
2022-09-20T17:51:37.115Z,2.25
2022-09-20T17:54:04.324Z,2.40
2022-09-20T17:56:31.323Z,2.17
2022-09-20T17:58:59.274Z,1.65
2022-09-20T18:01:27.355Z,1.70
2022-09-20T18:03:56.277Z,1.55
2022-09-20T18:06:31.836Z,2.40
2022-09-20T18:09:06.800Z,1.58
2022-09-20T18:11:41.989Z,2.15
2022-09-20T18:14:13.490Z,1.70
2022-09-20T18:16:40.428Z,1.70
2022-09-20T18:19:08.474Z,1.73
2022-09-20T18:21:36.462Z,2.00
2022-09-20T18:24:07.125Z,1.90
2022-09-20T18:26:34.790Z,2.13
2022-09-20T18:29:02.908Z,1.60
2022-09-20T18:31:36.162Z,1.90
2022-09-20T18:34:07.724Z,2.10
2022-09-20T18:36:37.301Z,2.00
2022-09-20T18:39:04.005Z,2.05
2022-09-20T18:41:33.457Z,1.95
2022-09-20T18:44:02.049Z,2.15
2022-09-20T18:46:30.879Z,2.25
2022-09-20T18:49:04.959Z,2.15
2022-09-20T18:51:35.853Z,2.22
2022-09-20T18:54:05.871Z,2.10
2022-09-20T18:56:34.757Z,2.20
2022-09-20T18:59:04.294Z,1.95
2022-09-20T19:02:01.098Z,2.00
2022-09-20T19:04:36.249Z,2.15
2022-09-20T19:07:21.108Z,2.10
2022-09-20T19:10:26.200Z,2.25
2022-09-20T19:12:55.370Z,1.85
2022-09-20T19:15:47.123Z,2.38
2022-09-20T19:18:24.195Z,2.80
2022-09-20T19:21:07.367Z,3.85
2022-09-20T19:24:02.383Z,4.07
2022-09-20T19:26:31.739Z,3.85
2022-09-20T19:29:00.174Z,3.63
2022-09-20T19:31:32.553Z,3.20
2022-09-20T19:34:03.064Z,4.60
2022-09-20T19:36:39.739Z,3.70
2022-09-20T19:39:32.515Z,3.65
2022-09-20T19:42:20.562Z,3.58
2022-09-20T19:45:01.316Z,3.60
2022-09-20T19:47:48.589Z,3.53
2022-09-20T19:50:52.577Z,4.00
2022-09-20T19:53:22.378Z,3.58
2022-09-20T19:55:55.283Z,3.78
2022-09-20T19:58:22.872Z,3.03
2022-09-20T20:00:49.723Z,3.05
2022-09-20T20:03:16.988Z,2.97
2022-09-20T20:06:07.880Z,3.92
2022-09-20T20:08:40.579Z,4.03
2022-09-20T20:11:13.531Z,3.95
2022-09-20T20:14:04.146Z,4.32
2022-09-20T20:16:43.416Z,3.53
2022-09-20T20:19:36.151Z,3.22
2022-09-20T20:22:24.271Z,4.25
2022-09-20T20:24:52.155Z,2.95
2022-09-20T20:27:19.899Z,2.75
2022-09-20T20:29:46.612Z,3.72
2022-09-20T20:32:13.327Z,3.67
2022-09-20T20:37:07.302Z,3.50
2022-09-20T20:39:34.458Z,3.80
2022-09-20T20:42:02.858Z,3.55
2022-09-20T20:44:35.671Z,3.30
2022-09-20T20:47:03.472Z,3.35
2022-09-20T20:49:30.257Z,3.30
2022-09-20T20:51:57.469Z,3.88
2022-09-20T20:54:24.549Z,3.70
2022-09-20T20:56:51.022Z,3.78
2022-09-20T20:59:18.160Z,3.45
2022-09-20T21:01:47.454Z,3.35
2022-09-20T21:04:15.709Z,3.63
2022-09-20T21:06:42.338Z,3.65
2022-09-20T21:11:44.478Z,5.13
2022-09-20T21:14:12.856Z,3.92
2022-09-20T21:16:45.528Z,3.33
2022-09-20T21:19:18.179Z,3.50
2022-09-20T21:21:47.820Z,3.30
2022-09-20T21:24:17.281Z,3.50
2022-09-20T21:26:44.519Z,3.25
2022-09-20T21:29:12.459Z,5.35
2022-09-20T21:31:41.406Z,4.88
2022-09-20T21:34:10.314Z,4.32
2022-09-20T21:36:38.161Z,3.97
2022-09-20T21:39:05.631Z,4.38
2022-09-20T21:41:34.336Z,4.50
2022-09-20T21:44:02.801Z,3.30
2022-09-20T21:46:32.629Z,3.40
2022-09-20T21:49:01.424Z,3.38
2022-09-20T21:51:31.107Z,4.07
2022-09-20T21:53:59.679Z,4.00
2022-09-20T21:56:28.342Z,4.57
2022-09-20T21:58:55.356Z,3.55
2022-09-20T22:01:24.790Z,3.10
2022-09-20T22:03:54.885Z,3.55
2022-09-20T22:06:23.259Z,3.35
2022-09-20T22:09:01.198Z,3.33
2022-09-20T22:11:31.086Z,3.30
2022-09-20T22:13:58.039Z,3.63
2022-09-20T22:16:28.962Z,3.03
2022-09-20T22:18:56.195Z,2.90
2022-09-20T22:21:28.354Z,2.97
2022-09-20T22:23:57.646Z,3.10
2022-09-20T22:26:26.498Z,3.70
2022-09-20T22:28:52.996Z,3.70
2022-09-20T22:31:22.760Z,3.78
2022-09-20T22:33:52.191Z,3.58
2022-09-20T22:36:25.741Z,3.28
2022-09-20T22:38:53.415Z,2.92
2022-09-20T22:41:20.824Z,3.33
2022-09-20T22:43:47.675Z,3.05
2022-09-20T22:46:16.567Z,2.85
2022-09-20T22:48:43.814Z,2.80
2022-09-20T22:51:28.610Z,3.60
2022-09-20T22:53:55.248Z,2.88
2022-09-20T22:58:53.016Z,2.50
2022-09-20T23:01:25.447Z,2.53
2022-09-20T23:03:57.879Z,2.95
2022-09-20T23:06:40.324Z,2.75
2022-09-20T23:09:10.102Z,3.05
2022-09-20T23:11:37.624Z,2.80
2022-09-20T23:14:06.042Z,3.00
2022-09-20T23:16:35.771Z,2.80
2022-09-20T23:19:03.785Z,3.00
2022-09-20T23:21:31.207Z,3.30
2022-09-20T23:23:59.865Z,2.80
2022-09-20T23:26:28.088Z,2.60
2022-09-20T23:29:00.234Z,2.78
2022-09-20T23:31:28.076Z,2.67
2022-09-20T23:34:00.138Z,3.08
2022-09-20T23:36:29.204Z,3.38
2022-09-20T23:38:56.949Z,3.22
2022-09-20T23:41:26.203Z,2.90
2022-09-20T23:43:52.734Z,2.88
2022-09-20T23:46:21.104Z,2.80
2022-09-20T23:48:48.084Z,2.85
2022-09-20T23:51:16.577Z,2.58
2022-09-20T23:53:43.788Z,2.60
2022-09-20T23:56:12.213Z,2.60
2022-09-20T23:58:41.313Z,2.45
